Terminal Aerodrome Forecast
Issued by NWS Detroit/Pontiac, MI

Home | Current Version | Previous Version | Text Only | Print | Product List | Glossary On
Versions: 1 2 3 4 5 6 7 8 9 10 11 12 13 14 15 16 17 18 19
000
FTUS43 KDTX 231100
TAFFNT
TAF
KFNT 231121Z 2312/2412 24004KT P6SM SKC
      TEMPO 2312/2314 5SM BR
     FM231800 24007KT P6SM SKC
     FM240100 00000KT P6SM SKC=

USA.gov is the U.S. government's official web portal to all federal, state and local government web resources and services.